Time;durP1;ratioP1;P1;durP2;ratioP2;P2;SDS_P1;SDS_P2;PMS_P1;PMS_P2;Temp;Humidity;BMP_temperature;BMP_pressure;BME280_temperature;BME280_humidity;BME280_pressure;Samples;Min_cycle;Max_cycle;Signal;HPM_P1;HPM_P2
2022/03/09 07:57:54;;;;;;;18.73;8.77;;;-0.80;71.30;;;;;;5708558;22;15036054;-84
2022/03/09 08:00:47;;;;;;;13.77;7.28;;;-0.40;70.50;;;;;;6345298;22;20112;-84
2022/03/09 08:03:24;;;;;;;16.07;7.83;;;0.10;68.90;;;;;;6293475;22;20019;-84
2022/03/09 08:06:22;;;;;;;16.88;7.65;;;0.30;67.40;;;;;;6318739;22;20536;-85
2022/03/09 08:08:52;;;;;;;16.13;7.60;;;0.70;66.10;;;;;;6341954;22;20019;-84
2022/03/09 08:11:19;;;;;;;18.20;8.27;;;1.00;65.70;;;;;;6343968;22;20059;-85
2022/03/09 08:13:45;;;;;;;17.80;8.18;;;1.20;65.80;;;;;;6315537;22;20518;-84
2022/03/09 08:16:12;;;;;;;14.52;8.35;;;1.50;65.10;;;;;;6342745;22;20031;-85
2022/03/09 08:19:03;;;;;;;16.80;8.38;;;1.80;64.50;;;;;;6343184;22;20023;-85
2022/03/09 08:21:44;;;;;;;22.83;7.82;;;2.20;64.20;;;;;;6291673;22;20110;-85
2022/03/09 08:24:14;;;;;;;14.00;8.02;;;2.80;61.00;;;;;;6316124;22;20098;-84
2022/03/09 08:27:14;;;;;;;13.18;7.32;;;3.30;60.60;;;;;;6318729;22;20046;-86
2022/03/09 08:29:51;;;;;;;14.30;6.97;;;3.90;57.30;;;;;;6268083;22;20049;-84
2022/03/09 08:32:32;;;;;;;14.82;7.03;;;4.40;53.60;;;;;;6346285;22;20093;-85
2022/03/09 08:35:07;;;;;;;13.40;6.68;;;4.80;55.70;;;;;;6352120;22;20051;-85
2022/03/09 08:37:37;;;;;;;14.48;6.43;;;5.40;51.10;;;;;;6299370;22;20042;-85
2022/03/09 08:40:17;;;;;;;16.42;6.78;;;5.80;48.70;;;;;;6319075;22;20025;-85
2022/03/09 08:42:44;;;;;;;12.30;6.22;;;6.20;47.80;;;;;;6346959;22;20059;-85
2022/03/09 08:45:10;;;;;;;19.02;6.78;;;6.60;46.90;;;;;;6349353;22;20100;-86
2022/03/09 08:47:39;;;;;;;12.25;6.57;;;7.00;45.20;;;;;;6351737;22;20019;-84
2022/03/09 08:50:29;;;;;;;11.27;6.40;;;7.30;44.40;;;;;;6346088;22;20031;-84
2022/03/09 08:53:03;;;;;;;14.45;6.53;;;7.50;44.50;;;;;;6347050;22;20015;-84
2022/03/09 08:55:30;;;;;;;14.48;7.00;;;7.80;42.20;;;;;;6333264;22;20025;-84
2022/03/09 08:58:12;;;;;;;12.57;7.35;;;8.00;39.90;;;;;;6343591;22;20019;-86
2022/03/09 09:01:00;;;;;;;13.25;7.05;;;8.20;41.00;;;;;;6322363;22;20078;-86
2022/03/09 09:03:27;;;;;;;12.25;6.82;;;8.20;41.20;;;;;;6316896;22;20797;-86
2022/03/09 09:05:54;;;;;;;15.40;7.30;;;8.20;40.10;;;;;;6307989;22;20076;-85
2022/03/09 09:08:23;;;;;;;14.05;8.18;;;8.60;39.30;;;;;;6310926;22;20023;-86
2022/03/09 09:11:05;;;;;;;15.20;7.32;;;8.90;38.00;;;;;;6310557;22;20447;-85
2022/03/09 09:13:32;;;;;;;11.60;6.57;;;8.90;41.00;;;;;;6314995;22;20098;-85
2022/03/09 09:15:58;;;;;;;13.40;7.10;;;9.10;37.70;;;;;;6314525;22;20027;-86
2022/03/09 09:18:27;;;;;;;12.32;7.30;;;9.60;40.90;;;;;;6320128;22;20023;-85
2022/03/09 09:21:03;;;;;;;15.80;7.55;;;10.30;37.60;;;;;;6356228;22;20007;-86
2022/03/09 09:23:30;;;;;;;15.27;8.43;;;9.90;37.30;;;;;;6355841;22;20010;-86
2022/03/09 09:25:59;;;;;;;13.23;7.95;;;9.80;36.60;;;;;;6327572;22;20046;-85
2022/03/09 09:28:39;;;;;;;14.20;7.80;;;10.30;39.00;;;;;;6349675;22;20802;-85
2022/03/09 09:31:24;;;;;;;15.40;7.28;;;10.10;37.50;;;;;;6346171;22;20381;-85
2022/03/09 09:34:02;;;;;;;13.05;7.85;;;10.10;37.70;;;;;;6333821;22;20063;-85
2022/03/09 09:37:02;;;;;;;13.15;7.35;;;10.60;37.90;;;;;;6319705;22;20788;-86
2022/03/09 09:39:36;;;;;;;13.43;8.48;;;10.90;37.40;;;;;;6315637;22;20054;-85
2022/03/09 09:42:09;;;;;;;11.75;7.55;;;11.60;37.40;;;;;;6315685;22;20778;-85
2022/03/09 09:44:37;;;;;;;16.55;7.97;;;11.40;36.20;;;;;;6344524;22;20030;-86
2022/03/09 09:47:05;;;;;;;15.52;8.27;;;11.60;36.90;;;;;;6342867;22;20023;-85
2022/03/09 09:49:41;;;;;;;18.42;8.57;;;11.40;36.80;;;;;;6314766;22;20031;-85
2022/03/09 09:52:08;;;;;;;15.60;8.00;;;11.50;39.10;;;;;;6344822;22;20015;-85
2022/03/09 09:54:35;;;;;;;19.30;8.00;;;12.60;38.40;;;;;;6342504;22;20078;-85
2022/03/09 09:57:02;;;;;;;13.95;8.63;;;12.60;39.00;;;;;;6340172;22;20042;-86
2022/03/09 09:59:33;;;;;;;14.57;8.20;;;12.80;35.30;;;;;;6343304;22;20026;-86
2022/03/09 10:02:25;;;;;;;18.02;8.80;;;13.00;35.70;;;;;;6340992;22;20043;-86
2022/03/09 10:05:06;;;;;;;15.07;8.25;;;12.20;33.10;;;;;;6339779;22;20076;-86
2022/03/09 10:08:03;;;;;;;14.60;8.50;;;12.30;36.30;;;;;;6342041;22;20031;-86
2022/03/09 10:10:41;;;;;;;16.35;8.60;;;12.20;36.20;;;;;;6341325;22;20027;-86
2022/03/09 10:13:35;;;;;;;18.15;8.63;;;12.60;35.80;;;;;;6313250;22;20019;-86
2022/03/09 10:16:16;;;;;;;15.68;8.93;;;12.60;36.10;;;;;;6341553;22;20595;-85
2022/03/09 10:18:56;;;;;;;20.58;9.00;;;12.90;36.50;;;;;;6316660;22;20088;-85
2022/03/09 10:21:28;;;;;;;14.40;8.93;;;13.10;35.20;;;;;;6340600;22;20671;-86
2022/03/09 10:27:53;;;;;;;14.73;9.30;;;12.70;33.70;;;;;;6285855;22;20103;-86
2022/03/09 10:30:40;;;;;;;15.65;9.32;;;12.30;36.70;;;;;;6338176;22;20027;-86
2022/03/09 10:33:09;;;;;;;19.15;10.07;;;13.00;37.20;;;;;;6338709;22;20027;-85
2022/03/09 10:35:47;;;;;;;20.88;10.43;;;13.20;33.70;;;;;;6335514;22;20517;-85
2022/03/09 10:38:19;;;;;;;21.45;10.40;;;12.90;34.40;;;;;;6311091;22;20031;-85
2022/03/09 10:41:10;;;;;;;18.25;10.35;;;13.20;35.60;;;;;;6340663;22;20019;-85
2022/03/09 10:43:37;;;;;;;21.05;10.77;;;13.90;33.30;;;;;;6338430;22;20023;-85
2022/03/09 10:46:13;;;;;;;19.00;11.00;;;13.30;33.10;;;;;;6338937;22;20027;-85
2022/03/09 10:48:57;;;;;;;17.23;10.35;;;13.30;34.50;;;;;;6340478;22;20026;-84
2022/03/09 10:51:35;;;;;;;19.83;11.02;;;13.50;36.20;;;;;;6312379;22;20096;-85
2022/03/09 10:55:10;;;;;;;22.25;11.98;;;13.90;33.80;;;;;;6311623;22;20399;-85
2022/03/09 10:57:37;;;;;;;17.98;11.05;;;14.40;34.00;;;;;;6156018;23;20022;-85
2022/03/09 11:00:05;;;;;;;19.00;11.02;;;14.40;35.80;;;;;;6183085;23;20357;-85
2022/03/09 11:03:03;;;;;;;17.92;10.15;;;14.80;34.10;;;;;;6181481;23;20018;-85
2022/03/09 11:05:30;;;;;;;20.55;11.93;;;14.50;34.30;;;;;;6156417;23;20026;-85
2022/03/09 11:08:06;;;;;;;23.38;12.20;;;14.60;34.20;;;;;;6171358;23;20456;-85
2022/03/09 11:11:04;;;;;;;20.13;11.98;;;14.30;33.90;;;;;;6179734;23;20495;-85
2022/03/09 11:14:11;;;;;;;21.90;12.18;;;13.60;33.80;;;;;;6041317;23;20019;-85
2022/03/09 11:16:45;;;;;;;21.48;11.60;;;13.30;34.30;;;;;;6068904;23;20027;-85
2022/03/09 11:19:15;;;;;;;20.58;10.70;;;13.40;34.10;;;;;;6069237;23;20203;-85
2022/03/09 11:22:02;;;;;;;20.38;11.70;;;13.30;35.00;;;;;;6094818;23;20033;-84
2022/03/09 11:24:31;;;;;;;23.38;11.20;;;13.40;35.60;;;;;;6095029;23;20082;-86
2022/03/09 11:27:19;;;;;;;19.05;12.18;;;13.80;36.80;;;;;;6072581;23;20066;-86
2022/03/09 11:30:11;;;;;;;23.13;12.93;;;13.70;33.60;;;;;;6244182;22;20040;-86
2022/03/09 11:33:01;;;;;;;20.27;10.18;;;13.70;36.90;;;;;;6221474;22;20100;-85
2022/03/09 11:35:48;;;;;;;21.33;13.18;;;13.90;35.40;;;;;;6245528;22;20074;-85
2022/03/09 11:38:37;;;;;;;19.75;10.50;;;13.90;33.40;;;;;;6246518;22;20107;-86
2022/03/09 11:41:23;;;;;;;20.20;12.60;;;13.50;35.00;;;;;;6220643;22;20052;-86
2022/03/09 11:44:19;;;;;;;24.63;11.88;;;13.00;33.60;;;;;;6224845;22;20035;-86
2022/03/09 11:47:02;;;;;;;22.20;12.00;;;13.40;35.70;;;;;;6224138;22;20054;-85
2022/03/09 11:49:58;;;;;;;20.83;11.68;;;13.40;34.60;;;;;;6254707;22;20448;-86
2022/03/09 11:52:32;;;;;;;22.83;12.50;;;13.50;35.20;;;;;;6353421;22;20022;-85
2022/03/09 11:55:53;;;;;;;20.77;13.10;;;13.50;34.00;;;;;;6321551;22;20102;-85
2022/03/09 11:58:57;;;;;;;19.88;12.50;;;13.20;33.60;;;;;;6341533;22;20023;-86
2022/03/09 12:02:06;;;;;;;23.25;12.82;;;13.00;34.90;;;;;;6342815;22;20026;-85
2022/03/09 12:08:03;;;;;;;;;;;;;;;;;;;;;
2022/03/09 12:10:53;;;;;;;22.27;13.05;;;13.10;36.50;;;;;;6342011;22;20015;-86
2022/03/09 12:14:05;;;;;;;26.70;13.32;;;13.20;34.20;;;;;;6279034;22;20733;-85
2022/03/09 12:17:17;;;;;;;26.33;13.43;;;13.00;34.80;;;;;;6316974;22;20026;-85
2022/03/09 12:20:29;;;;;;;22.70;12.93;;;13.10;37.30;;;;;;6346726;22;20524;-85
2022/03/09 12:23:37;;;;;;;22.92;13.02;;;13.30;35.20;;;;;;6317884;22;20019;-85
2022/03/09 12:26:48;;;;;;;25.52;13.13;;;13.00;34.60;;;;;;6344330;22;20077;-85
2022/03/09 12:29:31;;;;;;;27.15;13.20;;;13.10;35.00;;;;;;6339831;22;20110;-86
2022/03/09 12:32:22;;;;;;;24.08;13.93;;;13.10;34.30;;;;;;6317281;22;20027;-86
2022/03/09 12:34:55;;;;;;;23.30;12.73;;;13.10;35.20;;;;;;6314133;22;20126;-85
2022/03/09 12:37:33;;;;;;;24.38;13.82;;;13.20;34.80;;;;;;6290756;22;20019;-84
2022/03/09 12:40:34;;;;;;;26.70;14.23;;;13.40;34.90;;;;;;6318496;22;20031;-84
2022/03/09 12:43:10;;;;;;;25.02;14.13;;;13.50;33.80;;;;;;6336269;22;20089;-85
2022/03/09 12:49:41;;;;;;;26.65;14.30;;;13.40;34.10;;;;;;6279395;22;20012;-85
2022/03/09 12:52:17;;;;;;;25.55;14.15;;;13.40;34.80;;;;;;6341553;22;20026;-85
2022/03/09 12:54:48;;;;;;;26.17;15.10;;;13.30;34.90;;;;;;6344955;22;20030;-86
2022/03/09 12:57:22;;;;;;;28.42;15.07;;;13.50;36.30;;;;;;6316143;22;20019;-84
2022/03/09 13:00:31;;;;;;;26.63;14.70;;;13.40;34.90;;;;;;6314930;22;20053;-83
2022/03/09 13:03:11;;;;;;;31.25;15.13;;;13.50;36.20;;;;;;6316805;22;20015;-84
2022/03/09 13:06:29;;;;;;;31.90;14.85;;;13.90;36.90;;;;;;6344348;22;20017;-85
2022/03/09 13:09:44;;;;;;;25.17;14.38;;;14.10;37.40;;;;;;6244805;22;20047;-85
2022/03/09 13:12:13;;;;;;;26.05;14.60;;;14.20;36.60;;;;;;6244747;22;20044;-85
2022/03/09 13:15:16;;;;;;;29.90;15.20;;;14.30;34.80;;;;;;6219782;22;20031;-85
2022/03/09 13:17:47;;;;;;;25.77;15.55;;;13.90;34.00;;;;;;6245349;22;20091;-85
2022/03/09 13:20:33;;;;;;;25.05;15.23;;;13.80;34.20;;;;;;6245845;22;20023;-85
2022/03/09 13:23:00;;;;;;;24.13;14.90;;;14.00;35.10;;;;;;6246877;22;20073;-85
2022/03/09 13:25:32;;;;;;;31.50;15.40;;;14.00;35.10;;;;;;6246213;22;20032;-84
2022/03/09 13:28:15;;;;;;;27.38;15.38;;;14.00;34.10;;;;;;6220933;22;20025;-86
2022/03/09 13:30:52;;;;;;;28.65;15.90;;;13.90;36.30;;;;;;6246402;22;20016;-84
2022/03/09 13:33:22;;;;;;;25.40;14.13;;;13.60;35.10;;;;;;6245199;22;20021;-85
2022/03/09 13:35:53;;;;;;;28.45;15.25;;;13.40;36.10;;;;;;6246236;22;20032;-85
2022/03/09 13:38:41;;;;;;;27.58;14.88;;;13.70;35.30;;;;;;6245079;22;20109;-86
2022/03/09 13:41:35;;;;;;;25.65;14.80;;;13.70;34.50;;;;;;6244752;22;20083;-86
2022/03/09 13:44:22;;;;;;;31.15;15.25;;;13.60;36.00;;;;;;6220500;22;20549;-86
2022/03/09 13:47:08;;;;;;;28.38;15.23;;;13.80;35.90;;;;;;6314277;22;20092;-87
2022/03/09 13:49:51;;;;;;;28.02;14.80;;;13.70;34.50;;;;;;6314872;22;20023;-86
2022/03/09 13:52:35;;;;;;;29.08;15.43;;;13.80;36.30;;;;;;6340569;22;20102;-86
2022/03/09 13:55:07;;;;;;;34.70;16.38;;;13.80;36.30;;;;;;6340240;22;20050;-86
2022/03/09 13:57:39;;;;;;;27.58;15.88;;;13.80;36.50;;;;;;6315104;22;20025;-86
2022/03/09 14:00:21;;;;;;;30.90;15.27;;;13.80;34.90;;;;;;6340645;22;20030;-86
2022/03/09 14:03:11;;;;;;;30.17;16.05;;;13.60;35.50;;;;;;6311720;22;20111;-86
2022/03/09 14:05:50;;;;;;;27.30;15.93;;;13.50;34.00;;;;;;6346195;22;20424;-86
2022/03/09 14:08:32;;;;;;;28.25;15.40;;;13.60;35.00;;;;;;6325921;22;20021;-86
2022/03/09 14:11:08;;;;;;;31.17;15.93;;;13.70;36.60;;;;;;6356626;22;20012;-86
2022/03/09 14:14:24;;;;;;;29.02;15.93;;;13.60;35.60;;;;;;6356384;22;20077;-86
2022/03/09 14:17:04;;;;;;;30.85;16.38;;;13.70;34.40;;;;;;6339676;22;20077;-86
2022/03/09 14:19:39;;;;;;;28.75;15.23;;;13.70;35.30;;;;;;6326370;22;20019;-86
2022/03/09 14:22:06;;;;;;;28.52;16.25;;;13.70;34.50;;;;;;6353418;22;20026;-86
2022/03/09 14:24:34;;;;;;;35.67;17.08;;;13.80;35.00;;;;;;6317946;22;20017;-86
2022/03/09 14:27:18;;;;;;;29.05;15.30;;;13.70;35.30;;;;;;6344977;22;20085;-86
2022/03/09 14:29:46;;;;;;;30.23;16.35;;;13.80;35.60;;;;;;6343116;22;20073;-86
2022/03/09 14:32:27;;;;;;;26.92;16.38;;;13.90;35.90;;;;;;6336599;22;20023;-86
2022/03/09 14:35:39;;;;;;;29.50;16.83;;;13.90;36.30;;;;;;6343271;22;20023;-86
2022/03/09 14:38:12;;;;;;;29.13;16.10;;;13.90;34.40;;;;;;6339060;22;20853;-86
2022/03/09 14:41:09;;;;;;;27.52;16.00;;;13.70;34.00;;;;;;6343853;22;20071;-86
2022/03/09 14:43:36;;;;;;;29.80;17.05;;;13.90;35.70;;;;;;6317075;22;20335;-86
2022/03/09 14:46:05;;;;;;;31.40;16.95;;;13.90;35.30;;;;;;6316959;22;20019;-87
2022/03/09 14:48:48;;;;;;;30.85;15.82;;;14.00;33.80;;;;;;6319280;22;20023;-87
2022/03/09 14:51:21;;;;;;;27.98;15.90;;;14.00;35.10;;;;;;6316128;22;20432;-87
2022/03/09 14:53:51;;;;;;;30.48;16.95;;;13.80;34.70;;;;;;6317841;22;20030;-87
2022/03/09 14:56:20;;;;;;;31.63;17.17;;;13.90;35.30;;;;;;6316531;22;20743;-87
2022/03/09 14:59:28;;;;;;;;;;;;;;;;;;;;;
2022/03/09 15:01:59;;;;;;;27.15;15.20;;;14.00;35.30;;;;;;6346908;22;20275;-87
2022/03/09 15:04:36;;;;;;;27.45;15.73;;;14.10;35.60;;;;;;6344328;22;20331;-87
2022/03/09 15:07:06;;;;;;;30.00;15.75;;;14.00;34.20;;;;;;6288138;22;20022;-88
2022/03/09 15:09:41;;;;;;;26.88;15.38;;;14.10;35.50;;;;;;6343228;22;20019;-87
2022/03/09 15:12:08;;;;;;;39.60;16.38;;;14.10;34.90;;;;;;6315904;22;20031;-87
2022/03/09 15:14:38;;;;;;;27.05;15.55;;;14.00;34.30;;;;;;6343506;22;20462;-87
2022/03/09 15:17:08;;;;;;;32.45;15.82;;;14.10;34.10;;;;;;6343445;22;20046;-87
2022/03/09 15:20:34;;;;;;;28.50;16.13;;;14.30;35.60;;;;;;6343843;22;20477;-87
2022/03/09 15:23:01;;;;;;;33.67;18.10;;;14.40;36.30;;;;;;6315716;22;20741;-87
2022/03/09 15:25:44;;;;;;;29.80;16.67;;;14.50;34.40;;;;;;6344243;22;20040;-87
2022/03/09 15:28:12;;;;;;;30.83;15.85;;;14.60;35.20;;;;;;6341357;22;20042;-87
2022/03/09 15:30:39;;;;;;;28.92;15.63;;;14.50;35.30;;;;;;6341797;22;20023;-87
2022/03/09 15:33:06;;;;;;;28.60;16.08;;;14.70;36.70;;;;;;6313212;22;20066;-87
2022/03/09 15:35:45;;;;;;;29.10;16.05;;;14.80;35.60;;;;;;6341848;22;20027;-87
2022/03/09 15:38:33;;;;;;;28.50;16.02;;;14.90;35.60;;;;;;6314300;22;20094;-87
2022/03/09 15:44:01;;;;;;;35.80;15.85;;;14.70;35.90;;;;;;6317220;22;20027;-84
2022/03/09 15:46:38;;;;;;;29.05;15.88;;;14.40;35.10;;;;;;6319873;22;20041;-85
2022/03/09 15:49:17;;;;;;;31.65;16.15;;;14.50;36.60;;;;;;6326998;22;20056;-85
2022/03/09 15:51:43;;;;;;;28.85;15.00;;;14.60;35.40;;;;;;6355421;22;20075;-85
2022/03/09 15:54:10;;;;;;;29.48;15.77;;;14.60;32.30;;;;;;6342420;22;20126;-84
2022/03/09 15:56:53;;;;;;;33.75;16.13;;;14.60;33.10;;;;;;6343860;22;20793;-85
2022/03/09 15:59:20;;;;;;;32.90;16.27;;;14.80;32.20;;;;;;6340975;22;20110;-85
2022/03/09 16:01:55;;;;;;;31.92;17.13;;;15.20;33.90;;;;;;6343586;22;20023;-85
2022/03/09 16:04:30;;;;;;;33.42;16.70;;;15.20;33.10;;;;;;6344455;22;20291;-86
2022/03/09 16:07:21;;;;;;;29.38;17.27;;;15.20;33.40;;;;;;6316469;22;20023;-86
2022/03/09 16:10:21;;;;;;;32.00;17.33;;;15.10;33.40;;;;;;6301931;22;20023;-86
2022/03/09 16:12:58;;;;;;;33.35;18.10;;;15.20;32.60;;;;;;6348763;22;20019;-85
2022/03/09 16:15:25;;;;;;;31.50;17.73;;;15.10;33.00;;;;;;6341643;22;20019;-85
2022/03/09 16:17:53;;;;;;;33.90;17.65;;;15.00;33.10;;;;;;6341775;22;20019;-85
2022/03/09 16:20:21;;;;;;;31.15;17.50;;;15.20;35.30;;;;;;6312611;22;20537;-85
2022/03/09 16:22:49;;;;;;;33.53;18.70;;;15.20;32.10;;;;;;6341333;22;20019;-86
2022/03/09 16:25:19;;;;;;;27.20;16.73;;;15.00;33.50;;;;;;6314057;22;20548;-85
2022/03/09 16:27:57;;;;;;;42.47;18.83;;;14.90;34.30;;;;;;6313092;22;20023;-85
2022/03/09 16:30:29;;;;;;;37.08;18.50;;;14.60;34.00;;;;;;6341110;22;20027;-85
2022/03/09 16:33:14;;;;;;;34.35;17.95;;;14.20;34.10;;;;;;6339425;22;20068;-85
2022/03/09 16:35:41;;;;;;;34.78;18.27;;;14.10;35.20;;;;;;6334504;22;20030;-85
2022/03/09 16:38:08;;;;;;;35.25;17.67;;;13.80;34.00;;;;;;6341857;22;20015;-85
2022/03/09 16:40:35;;;;;;;31.05;17.35;;;13.80;35.70;;;;;;6341679;22;20034;-85
2022/03/09 16:43:07;;;;;;;35.72;17.92;;;13.80;36.50;;;;;;6343795;22;20080;-85
2022/03/09 16:45:43;;;;;;;37.08;17.00;;;13.60;35.70;;;;;;6349993;22;20075;-85
2022/03/09 16:48:54;;;;;;;;;;;;;;;;;;;;;
2022/03/09 16:51:36;;;;;;;35.72;17.58;;;13.30;37.00;;;;;;6250662;22;20059;-84
2022/03/09 16:54:12;;;;;;;29.73;16.35;;;13.00;36.40;;;;;;6222854;22;20025;-85
2022/03/09 16:56:39;;;;;;;33.47;17.33;;;12.80;37.40;;;;;;6225508;22;20103;-86
2022/03/09 16:59:23;;;;;;;35.03;18.48;;;12.70;38.60;;;;;;6225300;22;20835;-86
2022/03/09 17:01:53;;;;;;;45.63;18.38;;;12.60;38.50;;;;;;6224534;22;20028;-85
2022/03/09 17:04:42;;;;;;;40.10;18.27;;;12.50;38.40;;;;;;6222320;22;20060;-86
2022/03/09 17:07:08;;;;;;;32.75;16.20;;;12.30;38.80;;;;;;6227744;22;20040;-85
2022/03/09 17:09:38;;;;;;;33.08;17.90;;;12.10;39.10;;;;;;6250109;22;20438;-86
2022/03/09 17:12:16;;;;;;;35.03;18.05;;;12.00;39.20;;;;;;6222166;22;20101;-85
2022/03/09 17:14:42;;;;;;;35.67;18.08;;;11.90;39.10;;;;;;6221583;22;20021;-86
2022/03/09 17:17:34;;;;;;;33.63;17.63;;;11.70;39.10;;;;;;6244098;22;20024;-85
2022/03/09 17:20:06;;;;;;;34.00;18.23;;;11.50;39.30;;;;;;6245891;22;20036;-85
2022/03/09 17:22:55;;;;;;;32.83;17.35;;;11.40;39.70;;;;;;6298018;22;20026;-86
2022/03/09 17:25:22;;;;;;;36.25;17.45;;;11.20;40.30;;;;;;6312452;22;20096;-83
2022/03/09 17:28:11;;;;;;;32.90;16.52;;;11.00;40.90;;;;;;6315283;22;20076;-84
2022/03/09 17:31:01;;;;;;;40.80;17.40;;;10.80;40.90;;;;;;6341245;22;20776;-84
2022/03/09 17:33:36;;;;;;;33.13;16.35;;;10.60;41.60;;;;;;6340462;22;20031;-85
2022/03/09 17:36:22;;;;;;;;;;;10.50;40.60;;;;;;6313708;22;20045;-85
2022/03/09 17:39:06;;;;;;;34.80;16.65;;;10.40;41.10;;;;;;6342654;22;19997;-85
2022/03/09 17:42:18;;;;;;;39.75;16.48;;;10.30;41.70;;;;;;6291002;22;20019;-84
2022/03/09 17:45:15;;;;;;;32.15;16.30;;;10.10;42.20;;;;;;6316371;22;20085;-84
2022/03/09 17:48:21;;;;;;;34.85;16.65;;;10.00;42.10;;;;;;6294190;22;20023;-83
2022/03/09 17:51:08;;;;;;;31.02;15.13;;;9.80;42.50;;;;;;6342566;22;20026;-85
2022/03/09 17:53:38;;;;;;;31.98;16.58;;;9.70;43.10;;;;;;6343671;22;20141;-85
2022/03/09 17:56:14;;;;;;;34.55;17.17;;;9.50;43.40;;;;;;6313859;22;20768;-85
2022/03/09 17:58:48;;;;;;;38.25;17.23;;;9.30;43.70;;;;;;6341405;22;20015;-85
2022/03/09 18:01:22;;;;;;;35.33;15.50;;;9.20;43.70;;;;;;6340688;22;20454;-85
2022/03/09 18:04:34;;;;;;;43.72;17.58;;;9.10;44.40;;;;;;6317017;22;20790;-85
2022/03/09 18:11:10;;;;;;;;;;;8.70;45.10;;;;;;6186535;23;20448;-85
2022/03/09 18:14:55;;;;;;;34.47;16.98;;;8.60;45.70;;;;;;6096694;23;19921;-85
2022/03/09 18:25:19;;;;;;;33.75;17.13;;;8.10;46.70;;;;;;5887696;24;20839;-85
2022/03/09 18:27:50;;;;;;;38.88;16.23;;;7.90;46.90;;;;;;5844712;24;20015;-85
2022/03/09 18:31:00;;;;;;;34.08;16.83;;;7.80;47.20;;;;;;5829483;24;20011;-85
2022/03/09 18:33:43;;;;;;;38.78;16.70;;;7.70;47.10;;;;;;5845401;24;20097;-85
2022/03/09 18:36:36;;;;;;;38.47;16.63;;;7.60;47.00;;;;;;5822615;24;20791;-85
2022/03/09 18:39:21;;;;;;;;;;;7.50;47.60;;;;;;5838602;24;20089;-85
2022/03/09 18:42:45;;;;;;;32.80;16.48;;;7.40;49.20;;;;;;5844702;24;19983;-85
2022/03/09 18:45:19;;;;;;;33.42;17.10;;;7.30;49.90;;;;;;5915614;23;20025;-85
2022/03/09 18:48:36;;;;;;;36.28;18.65;;;7.10;50.00;;;;;;5954341;24;20036;-85
2022/03/09 18:51:42;;;;;;;44.53;17.25;;;7.00;51.50;;;;;;5927746;24;20018;-87
2022/03/09 18:54:29;;;;;;;32.53;17.27;;;6.80;52.80;;;;;;5921203;24;20025;-85
2022/03/09 18:57:22;;;;;;;36.78;16.90;;;6.60;50.70;;;;;;5930711;24;20107;-86
2022/03/09 19:03:20;;;;;;;46.00;16.75;;;6.50;50.80;;;;;;5957851;23;20431;-86
2022/03/09 19:06:04;;;;;;;36.13;16.23;;;6.30;51.30;;;;;;6038960;23;20024;-86
2022/03/09 19:09:27;;;;;;;39.03;17.42;;;6.20;50.80;;;;;;6034140;23;20024;-86
2022/03/09 19:12:37;;;;;;;30.73;16.02;;;6.10;50.70;;;;;;6017980;23;20028;-86
2022/03/09 19:15:53;;;;;;;36.08;18.15;;;5.90;52.40;;;;;;6023344;23;20135;-86
2022/03/09 19:18:44;;;;;;;38.10;18.52;;;5.70;52.80;;;;;;6040509;23;20027;-86
2022/03/09 19:21:17;;;;;;;38.22;17.15;;;5.50;53.20;;;;;;6121550;23;20033;-86
2022/03/09 19:24:05;;;;;;;36.42;17.58;;;5.40;53.50;;;;;;6104069;23;20026;-86
2022/03/09 19:26:35;;;;;;;40.90;18.20;;;5.30;54.00;;;;;;6111495;23;20122;-85
2022/03/09 19:29:43;;;;;;;36.75;17.50;;;5.20;53.60;;;;;;6134707;23;20096;-85
2022/03/09 19:33:43;;;;;;;35.50;15.82;;;5.10;54.20;;;;;;6316801;22;20015;-86
2022/03/09 19:41:00;;;;;;;34.97;17.60;;;4.80;54.40;;;;;;6070532;23;20023;-85
2022/03/09 19:43:37;;;;;;;33.15;16.60;;;4.70;54.10;;;;;;5906766;24;20771;-85
2022/03/09 19:49:18;;;;;;;32.10;15.93;;;4.60;55.00;;;;;;5907301;24;20021;-85
2022/03/09 19:51:55;;;;;;;28.85;15.20;;;4.50;55.90;;;;;;5881723;24;20028;-86
2022/03/09 19:54:58;;;;;;;29.90;15.50;;;4.40;57.20;;;;;;5879823;24;20517;-85
2022/03/09 19:57:47;;;;;;;29.70;14.45;;;4.20;57.40;;;;;;5880437;24;20026;-85
2022/03/09 20:00:35;;;;;;;34.40;15.68;;;4.00;58.90;;;;;;5923097;24;20025;-85
2022/03/09 20:03:55;;;;;;;32.53;14.00;;;3.80;60.80;;;;;;5914560;24;20049;-85
2022/03/09 20:06:53;;;;;;;30.40;15.90;;;3.50;60.20;;;;;;5896354;24;20033;-85
2022/03/09 20:10:03;;;;;;;31.42;14.52;;;3.50;58.80;;;;;;5927502;24;20175;-85
2022/03/09 23:46:02;;;;;;;38.78;16.98;;;-1.00;75.50;;;;;;5623888;22;13796103;-85
2022/03/09 23:48:50;;;;;;;42.35;16.27;;;-1.10;73.70;;;;;;6164471;23;20031;-86
2022/03/09 23:51:37;;;;;;;37.53;15.88;;;-1.10;72.10;;;;;;6135305;23;20037;-86
2022/03/09 23:54:42;;;;;;;37.65;17.25;;;-1.10;73.60;;;;;;6111381;23;20026;-85
2022/03/09 23:57:16;;;;;;;38.58;17.27;;;-1.20;75.70;;;;;;6175625;23;20018;-85
